Banks, Mississippi
Current Conditions -  °F | °C
As of 12:15 PM on Tuesday 21 Oct 2014 (Local Time) from KUTA Reporting Station
Clear Clear  
Wind Chill: 73°   Ceiling: Unl
Heat Index: 73°   Visibility: 10mi
Dew Point: 50°   Wind: 3mph
Humidity: 44%   Direction: 360°N
Pressure: 30.1"   Gusts: NA
Location:  34.8092°N, 90.3159°W
Report Text: KUTA 211715Z AUTO 36003KT 10SM CLR 23/10 A3010 RMK AO2
Loading
Personal Weather Stations






























Interactive Weather Map New forecast layout! Learn more

10-Day Weather Forecast

Advertisements
Track Severe Weather on mobile